Time;durP1;ratioP1;P1;durP2;ratioP2;P2;SDS_P1;SDS_P2;PMS_P1;PMS_P2;Temp;Humidity;BMP_temperature;BMP_pressure;BME280_temperature;BME280_humidity;BME280_pressure;Samples;Min_cycle;Max_cycle;Signal;HPM_P1;HPM_P2
2022/03/02 00:01:55;;;;;;;48.40;17.30;;;;;;;19.12;13.11;99213.22;5081267;28;20024;-81
2022/03/02 00:04:21;;;;;;;63.22;22.13;;;;;;;19.46;12.52;99203.88;5079952;28;20044;-81
2022/03/02 00:06:47;;;;;;;66.78;24.25;;;;;;;19.71;12.51;99207.81;5082590;28;20021;-81
2022/03/02 00:09:13;;;;;;;70.47;24.38;;;;;;;19.80;12.37;99194.38;5078391;28;20123;-80
2022/03/02 00:11:39;;;;;;;68.82;24.35;;;;;;;19.92;12.43;99196.94;5086926;28;20043;-80
2022/03/02 00:14:06;;;;;;;57.30;20.67;;;;;;;19.64;12.30;99195.75;5084533;28;20040;-80
2022/03/02 00:16:33;;;;;;;58.92;22.13;;;;;;;19.76;12.22;99190.75;5085414;28;20451;-80
2022/03/02 03:08:39;;;;;;;97.30;31.67;;;;;;;20.74;11.87;99087.03;5083876;28;20046;-80
2022/03/02 03:11:05;;;;;;;85.15;28.40;;;;;;;20.93;11.72;99078.41;5101716;28;20032;-80
2022/03/02 03:13:31;;;;;;;84.93;29.48;;;;;;;20.92;11.75;99084.34;5096177;28;20039;-79
2022/03/02 03:15:58;;;;;;;88.43;31.58;;;;;;;20.96;11.83;99087.94;5075385;28;20024;-79
2022/03/02 03:18:24;;;;;;;78.07;26.98;;;;;;;20.64;11.87;99094.13;5094373;28;20043;-79
2022/03/02 03:20:50;;;;;;;71.82;26.05;;;;;;;20.61;11.77;99096.88;5084769;28;20099;-80
2022/03/02 03:23:16;;;;;;;70.82;28.25;;;;;;;19.85;12.50;99095.72;5093483;28;20108;-80
2022/03/02 03:25:42;;;;;;;71.32;28.23;;;;;;;18.56;13.37;99108.19;5092580;28;20413;-79
2022/03/02 03:28:08;;;;;;;65.68;24.70;;;;;;;16.57;15.42;99109.94;5088777;28;20031;-79
2022/03/02 03:30:34;;;;;;;77.40;27.13;;;;;;;17.64;14.43;99105.66;5088339;28;20035;-80
2022/03/02 03:33:04;;;;;;;83.38;30.42;;;;;;;18.60;13.62;99097.91;5074640;28;20024;-79
2022/03/02 03:35:31;;;;;;;101.68;34.72;;;;;;;19.21;13.17;99085.72;5105288;28;20035;-79
2022/03/02 03:37:57;;;;;;;97.63;35.78;;;;;;;19.61;12.84;99080.28;5083946;28;20029;-79
2022/03/02 03:40:23;;;;;;;97.63;33.63;;;;;;;19.67;12.82;99091.91;5085128;28;20032;-80
2022/03/02 03:42:51;;;;;;;81.82;32.55;;;;;;;19.75;12.77;99091.59;5087046;28;20032;-79
2022/03/02 03:45:17;;;;;;;84.97;30.95;;;;;;;20.05;12.64;99087.97;5082829;28;20736;-79
2022/03/02 03:47:45;;;;;;;88.95;30.30;;;;;;;20.36;12.17;99090.28;5091600;28;20031;-79
2022/03/02 03:50:12;;;;;;;80.78;29.13;;;;;;;20.44;12.19;99084.38;5081509;28;20039;-79
2022/03/02 03:52:38;;;;;;;91.15;32.08;;;;;;;20.59;11.85;99082.50;5093188;28;20417;-79
2022/03/02 03:55:06;;;;;;;87.82;34.30;;;;;;;20.08;12.28;99085.19;5094514;28;20532;-79
2022/03/02 03:57:32;;;;;;;95.72;33.72;;;;;;;19.89;12.45;99085.38;5089352;28;20517;-79
2022/03/02 03:59:58;;;;;;;93.00;32.67;;;;;;;20.09;12.10;99074.84;5093557;28;20047;-78
2022/03/02 04:02:24;;;;;;;92.75;32.80;;;;;;;20.26;11.97;99072.25;5095233;28;20051;-79
2022/03/02 04:04:50;;;;;;;97.00;33.33;;;;;;;20.15;12.16;99076.91;5091332;28;20028;-78
2022/03/02 04:07:16;;;;;;;90.30;33.13;;;;;;;20.17;12.03;99080.09;5089722;28;20533;-78
2022/03/02 04:09:43;;;;;;;91.57;33.25;;;;;;;20.31;11.92;99076.69;5089615;28;20032;-79
2022/03/02 04:12:09;;;;;;;98.47;35.72;;;;;;;20.26;11.82;99074.25;5096732;28;20031;-79
2022/03/02 04:14:35;;;;;;;92.53;33.00;;;;;;;20.31;11.79;99076.69;5086229;28;20699;-79
2022/03/02 04:17:01;;;;;;;89.85;31.38;;;;;;;20.47;11.80;99069.66;5091717;28;20398;-79
2022/03/02 04:19:27;;;;;;;89.15;32.20;;;;;;;20.51;11.52;99070.47;5090206;28;20028;-79
2022/03/02 04:21:53;;;;;;;92.43;33.17;;;;;;;20.43;11.77;99065.22;5086745;28;20040;-79
2022/03/02 04:24:19;;;;;;;79.32;31.40;;;;;;;20.18;11.79;99069.75;5086927;28;20032;-79
2022/03/02 04:26:45;;;;;;;94.38;31.83;;;;;;;20.08;11.68;99068.47;5084736;28;20516;-78
2022/03/02 04:29:11;;;;;;;88.45;31.73;;;;;;;19.42;12.22;99068.53;5082473;28;20485;-79
2022/03/02 04:31:38;;;;;;;110.30;41.08;;;;;;;19.40;12.26;99059.72;5095114;28;20077;-78
2022/03/02 04:34:05;;;;;;;93.10;36.03;;;;;;;19.42;12.16;99055.38;5088327;28;20493;-79
2022/03/02 04:36:31;;;;;;;143.60;58.65;;;;;;;19.46;12.21;99063.81;5089824;28;20032;-78
2022/03/02 04:38:58;;;;;;;96.80;35.53;;;;;;;19.62;12.34;99059.63;5088456;28;20028;-79
2022/03/02 04:41:24;;;;;;;98.13;36.58;;;;;;;19.33;12.35;99057.63;5089480;28;20154;-79
2022/03/02 04:43:50;;;;;;;104.45;36.70;;;;;;;19.36;12.39;99056.91;5089134;28;20538;-78
2022/03/02 04:46:16;;;;;;;89.38;35.03;;;;;;;19.51;12.25;99055.91;5082911;28;20152;-79
2022/03/02 04:48:43;;;;;;;97.03;36.90;;;;;;;19.08;12.57;99059.28;5086900;28;20056;-78
2022/03/02 04:51:09;;;;;;;96.32;34.70;;;;;;;19.13;12.30;99056.19;5084985;28;20036;-78
2022/03/02 04:53:35;;;;;;;88.60;33.90;;;;;;;19.28;12.20;99055.19;5086544;28;20595;-79
2022/03/02 04:56:01;;;;;;;104.47;34.78;;;;;;;19.32;12.22;99053.25;5085689;28;20021;-79
2022/03/02 04:58:27;;;;;;;93.47;37.72;;;;;;;19.36;12.22;99050.53;5084401;28;20040;-79
2022/03/02 05:00:54;;;;;;;101.03;36.75;;;;;;;19.32;12.40;99056.81;5092713;28;20027;-79
2022/03/02 05:03:20;;;;;;;99.05;32.88;;;;;;;19.10;12.64;99059.72;5098852;28;20798;-79
2022/03/02 05:05:46;;;;;;;96.07;33.95;;;;;;;19.16;12.42;99044.31;5085054;28;20032;-79
2022/03/02 05:08:13;;;;;;;87.95;32.78;;;;;;;19.06;12.52;99056.91;5084308;28;20036;-79
2022/03/02 05:10:39;;;;;;;96.25;33.95;;;;;;;18.96;12.59;99051.16;5085211;28;20030;-79
2022/03/02 05:13:05;;;;;;;84.70;31.88;;;;;;;19.07;12.53;99049.31;5086321;28;20029;-80
2022/03/02 05:15:31;;;;;;;81.32;29.88;;;;;;;18.98;12.31;99046.03;5074835;28;20115;-80
2022/03/02 05:17:58;;;;;;;92.85;33.78;;;;;;;19.07;12.58;99050.13;5087139;28;20047;-80
2022/03/02 05:20:24;;;;;;;89.68;34.22;;;;;;;19.07;12.42;99043.75;5086252;28;20036;-79
2022/03/02 05:22:51;;;;;;;89.90;34.13;;;;;;;19.07;12.41;99044.56;5086666;28;20028;-79
2022/03/02 05:25:17;;;;;;;79.93;29.42;;;;;;;19.30;12.50;99050.84;5082910;28;20043;-78
2022/03/02 05:27:44;;;;;;;88.57;33.08;;;;;;;19.35;12.68;99048.91;5087606;28;20084;-79
2022/03/02 05:30:11;;;;;;;89.70;33.22;;;;;;;19.51;12.24;99046.75;5089172;28;20524;-79
2022/03/02 05:32:38;;;;;;;93.10;34.13;;;;;;;19.55;12.11;99053.97;5083217;28;20036;-79
2022/03/02 05:35:06;;;;;;;90.60;33.72;;;;;;;19.67;12.06;99047.34;5069401;28;20508;-78
2022/03/02 05:37:34;;;;;;;87.30;34.35;;;;;;;19.59;12.17;99045.66;5081472;28;20089;-78
2022/03/02 05:40:04;;;;;;;89.15;32.80;;;;;;;19.47;12.50;99045.91;5085513;28;20631;-78
2022/03/02 05:42:30;;;;;;;87.07;32.10;;;;;;;19.65;12.33;99049.72;5087501;28;20031;-77
2022/03/02 05:44:56;;;;;;;80.70;30.90;;;;;;;19.82;12.10;99044.31;5082581;28;20036;-78
2022/03/02 05:47:22;;;;;;;79.72;29.33;;;;;;;19.81;12.06;99048.28;5083254;28;20253;-78
2022/03/02 05:49:50;;;;;;;89.53;31.67;;;;;;;19.68;12.22;99051.72;5079639;28;20036;-78
2022/03/02 05:52:18;;;;;;;82.57;28.85;;;;;;;19.78;12.21;99054.63;5090296;28;20385;-78
2022/03/02 05:54:44;;;;;;;82.65;29.25;;;;;;;19.91;12.19;99047.59;5085829;28;20044;-78
2022/03/02 05:57:10;;;;;;;77.32;28.70;;;;;;;19.99;12.25;99054.84;5082831;28;20397;-79
2022/03/02 05:59:37;;;;;;;80.88;28.52;;;;;;;20.08;12.34;99051.75;5088091;28;20043;-78
2022/03/02 06:02:03;;;;;;;68.80;27.15;;;;;;;20.27;12.40;99051.56;5085588;28;20408;-78
2022/03/02 06:04:29;;;;;;;83.15;31.85;;;;;;;20.24;12.59;99063.47;5081718;28;20504;-78
2022/03/02 06:06:55;;;;;;;84.03;32.08;;;;;;;19.80;12.74;99062.59;5083738;28;20569;-78
2022/03/02 06:09:22;;;;;;;90.25;32.55;;;;;;;19.56;13.17;99061.13;5087222;28;20036;-78
2022/03/02 06:11:48;;;;;;;83.10;32.80;;;;;;;19.31;13.25;99058.03;5079752;28;20498;-78
2022/03/02 06:14:14;;;;;;;90.28;33.05;;;;;;;19.13;13.35;99054.22;5085569;28;20516;-77
2022/03/02 06:16:41;;;;;;;85.10;31.73;;;;;;;19.28;13.34;99050.41;5083449;28;20031;-78
2022/03/02 06:19:08;;;;;;;76.00;31.75;;;;;;;19.56;13.03;99046.41;5081767;28;20056;-77
2022/03/02 06:21:34;;;;;;;74.00;30.00;;;;;;;19.90;12.96;99053.56;5084647;28;20032;-78
2022/03/02 06:24:01;;;;;;;66.57;27.92;;;;;;;20.29;12.62;99053.97;5083370;28;20119;-78
2022/03/02 06:26:27;;;;;;;83.13;30.80;;;;;;;20.50;12.36;99056.94;5080225;28;20045;-78
2022/03/02 06:28:54;;;;;;;84.95;30.83;;;;;;;20.49;12.51;99052.56;5063557;28;20024;-78
2022/03/02 06:31:20;;;;;;;78.22;29.58;;;;;;;20.58;12.24;99062.16;5091558;28;20088;-78
2022/03/02 06:33:47;;;;;;;78.88;28.55;;;;;;;20.60;12.28;99057.03;5080534;28;20047;-77
2022/03/02 06:36:14;;;;;;;78.63;30.05;;;;;;;20.76;12.38;99053.13;5081190;28;20493;-78
2022/03/02 06:38:40;;;;;;;79.03;30.27;;;;;;;20.72;12.25;99055.09;5086109;28;20102;-78
2022/03/02 06:41:30;;;;;;;81.10;28.70;;;;;;;20.74;12.25;99042.38;5073690;28;20042;-78
2022/03/02 06:44:02;;;;;;;78.93;32.83;;;;;;;20.90;12.13;99047.66;5081320;28;20048;-78
2022/03/02 06:46:57;;;;;;;109.70;42.40;;;;;;;20.93;12.09;99044.91;5082248;28;20028;-78
2022/03/02 06:49:34;;;;;;;87.95;31.48;;;;;;;20.19;12.83;99043.47;5085017;28;20501;-78
2022/03/02 06:52:03;;;;;;;90.88;33.83;;;;;;;19.96;13.02;99052.81;5081025;28;20503;-78
2022/03/02 06:54:31;;;;;;;86.63;35.22;;;;;;;20.02;12.99;99059.66;5080724;28;20044;-78
2022/03/02 06:57:03;;;;;;;84.32;31.38;;;;;;;20.16;12.83;99058.19;5084047;28;20035;-78
2022/03/02 06:59:41;;;;;;;85.47;30.70;;;;;;;20.53;12.82;99058.94;5086845;28;20505;-78
2022/03/02 07:02:09;;;;;;;83.45;35.28;;;;;;;20.05;13.11;99058.09;5082979;28;20029;-78
2022/03/02 07:04:44;;;;;;;71.72;30.02;;;;;;;20.20;13.07;99051.47;5083515;28;20030;-78
2022/03/02 07:07:11;;;;;;;93.22;33.17;;;;;;;20.26;13.33;99061.09;5085574;28;20446;-79
2022/03/02 07:09:37;;;;;;;97.97;38.92;;;;;;;20.04;13.65;99066.84;5070817;28;20143;-77
2022/03/02 07:12:05;;;;;;;84.43;34.83;;;;;;;20.28;13.59;99064.31;5081249;28;20039;-77
2022/03/02 07:14:35;;;;;;;76.32;31.77;;;;;;;20.43;13.74;99074.41;5083096;28;20106;-78
2022/03/02 07:17:03;;;;;;;89.63;35.67;;;;;;;20.62;13.76;99062.22;5089160;28;20034;-77
2022/03/02 07:19:30;;;;;;;78.63;30.40;;;;;;;20.68;13.56;99066.22;5081057;28;20025;-78
2022/03/02 07:21:57;;;;;;;57.67;25.35;;;;;;;20.39;14.03;99073.59;5079485;28;20522;-78
2022/03/02 07:24:25;;;;;;;65.53;26.73;;;;;;;20.62;13.83;99073.38;5084996;28;20043;-78
2022/03/02 07:26:53;;;;;;;64.15;27.02;;;;;;;21.01;14.12;99051.28;5080276;28;20036;-78
2022/03/02 07:29:21;;;;;;;52.45;25.77;;;;;;;21.03;14.31;99052.50;5085992;28;20485;-78
2022/03/02 07:31:48;;;;;;;67.05;26.25;;;;;;;21.41;13.92;99059.53;5072283;28;20025;-78
2022/03/02 07:34:16;;;;;;;53.15;23.83;;;;;;;21.46;13.80;99053.56;5081313;28;20086;-78
2022/03/02 07:36:42;;;;;;;56.42;23.90;;;;;;;21.35;14.03;99058.31;5083650;28;20486;-78
2022/03/02 07:39:09;;;;;;;56.88;23.45;;;;;;;21.47;13.95;99054.38;5083638;28;20067;-78
2022/03/02 07:41:36;;;;;;;53.83;24.48;;;;;;;21.09;14.25;99053.78;5082752;28;20023;-78
2022/03/02 07:44:03;;;;;;;49.38;21.15;;;;;;;21.23;13.85;99059.44;5079837;28;20480;-78
2022/03/02 07:46:30;;;;;;;46.85;21.98;;;;;;;21.18;14.66;99050.63;5084823;28;20029;-78
2022/03/02 07:48:56;;;;;;;49.58;21.27;;;;;;;21.38;14.23;99054.72;5080852;28;20115;-78
2022/03/02 07:51:24;;;;;;;41.70;19.73;;;;;;;21.35;13.66;99047.91;5066667;28;20473;-78
2022/03/02 07:53:51;;;;;;;43.63;19.08;;;;;;;21.40;13.83;99045.97;5082589;28;20029;-78
2022/03/02 07:56:20;;;;;;;49.85;19.80;;;;;;;21.06;13.94;99043.41;5086133;28;20067;-78
2022/03/02 07:58:46;;;;;;;35.15;16.50;;;;;;;20.96;14.01;99051.66;5086650;28;20031;-78
2022/03/02 08:01:20;;;;;;;43.30;19.42;;;;;;;21.26;13.93;99052.28;5086834;28;20040;-78
2022/03/02 08:03:46;;;;;;;47.17;18.65;;;;;;;21.94;13.23;99045.75;5079766;28;20037;-78
2022/03/02 08:06:12;;;;;;;45.80;18.35;;;;;;;22.49;12.65;99043.41;5083963;28;20042;-78
2022/03/02 08:08:39;;;;;;;40.63;17.85;;;;;;;22.83;12.61;99041.00;5083033;28;20032;-78
2022/03/02 08:11:06;;;;;;;58.65;23.63;;;;;;;22.84;12.63;99048.22;5080723;28;20477;-78
2022/03/02 08:13:34;;;;;;;60.92;24.85;;;;;;;23.10;12.51;99048.56;5078850;28;20032;-78
2022/03/02 08:16:04;;;;;;;51.58;19.77;;;;;;;23.46;12.20;99035.25;5084841;28;20032;-78
2022/03/02 08:18:30;;;;;;;59.25;21.77;;;;;;;23.69;12.40;99031.91;5083967;28;20040;-78
2022/03/02 08:20:57;;;;;;;48.00;20.80;;;;;;;23.97;12.06;99032.56;5079542;28;20028;-78
2022/03/02 08:23:32;;;;;;;59.45;23.60;;;;;;;24.10;12.35;99032.13;5085433;28;20374;-79
2022/03/02 08:25:59;;;;;;;52.35;21.52;;;;;;;24.26;12.20;99024.78;5080642;28;20055;-78
2022/03/02 08:28:25;;;;;;;50.55;21.13;;;;;;;24.31;11.64;99024.34;5080976;28;20169;-78
2022/03/02 08:30:53;;;;;;;56.17;21.67;;;;;;;24.18;11.80;99020.41;5081946;28;20113;-78
2022/03/02 08:33:29;;;;;;;46.95;20.58;;;;;;;24.03;12.30;99022.53;5080184;28;20025;-79
2022/03/02 08:35:57;;;;;;;60.22;24.90;;;;;;;24.21;11.97;99021.59;5081884;28;20024;-78
2022/03/02 08:38:24;;;;;;;82.07;27.60;;;;;;;24.36;12.06;99012.69;5086957;28;20056;-78
2022/03/02 08:40:51;;;;;;;63.90;22.00;;;;;;;24.36;11.90;99023.09;5081530;28;20107;-78
2022/03/02 08:43:18;;;;;;;44.85;18.52;;;;;;;24.22;11.97;99021.22;5066447;28;20028;-78
2022/03/02 08:45:52;;;;;;;46.40;18.20;;;;;;;24.31;12.05;99021.53;5084740;28;20422;-78
2022/03/02 08:48:19;;;;;;;32.30;12.80;;;;;;;24.39;11.62;99017.44;5083513;28;20484;-78
2022/03/02 08:50:46;;;;;;;35.65;13.80;;;;;;;24.60;11.43;99017.25;5087541;28;20032;-78
2022/03/02 08:53:14;;;;;;;37.58;14.40;;;;;;;24.59;11.80;99018.50;5085196;28;20039;-78
2022/03/02 08:55:42;;;;;;;38.20;13.95;;;;;;;22.86;12.53;99007.41;5068996;28;20031;-78
2022/03/02 08:58:10;;;;;;;34.63;14.15;;;;;;;23.07;12.80;99015.75;5083658;28;20115;-78
2022/03/02 09:00:36;;;;;;;32.70;13.55;;;;;;;23.48;12.66;99009.63;5083425;28;20026;-78
2022/03/02 09:03:04;;;;;;;35.28;14.25;;;;;;;23.77;12.39;99006.25;5083901;28;20031;-78
2022/03/02 09:05:30;;;;;;;26.88;12.38;;;;;;;23.97;12.26;98993.28;5086145;28;20040;-78
2022/03/02 09:07:57;;;;;;;27.33;12.00;;;;;;;24.27;11.98;98992.69;5091587;28;20042;-78
2022/03/02 09:10:23;;;;;;;26.30;13.48;;;;;;;24.46;11.99;98986.50;5080417;28;20024;-78
2022/03/02 09:12:50;;;;;;;29.23;13.65;;;;;;;24.12;12.58;98984.78;5084055;28;20032;-78
2022/03/02 09:15:17;;;;;;;31.52;13.63;;;;;;;24.11;12.46;98977.59;5066334;28;20033;-78
2022/03/02 09:17:43;;;;;;;34.28;13.23;;;;;;;23.85;12.52;98981.78;5086669;28;20032;-78
2022/03/02 09:20:11;;;;;;;23.60;11.18;;;;;;;24.20;12.53;98972.31;5091939;28;20024;-78
2022/03/02 09:22:39;;;;;;;32.53;13.77;;;;;;;24.36;12.35;98969.78;5088359;28;20040;-78
2022/03/02 09:25:06;;;;;;;33.17;14.00;;;;;;;24.60;12.03;98954.69;5082669;28;20093;-78
2022/03/02 09:27:33;;;;;;;27.83;12.65;;;;;;;24.77;12.30;98955.75;5086688;28;20111;-78
2022/03/02 09:30:01;;;;;;;26.15;11.85;;;;;;;24.93;12.06;98955.97;5084630;28;20505;-78
2022/03/02 09:32:30;;;;;;;25.70;11.65;;;;;;;24.85;11.58;98955.28;5083406;28;20040;-78
2022/03/02 09:34:57;;;;;;;26.27;11.50;;;;;;;24.94;11.45;98961.19;5086269;28;20028;-78
2022/03/02 09:37:26;;;;;;;24.67;11.63;;;;;;;25.04;11.55;98945.41;5086407;28;20024;-78
2022/03/02 09:39:52;;;;;;;21.80;10.45;;;;;;;24.53;11.87;98949.94;5087163;28;20493;-78
2022/03/02 09:42:34;;;;;;;21.25;10.82;;;;;;;24.44;11.60;98952.44;5083858;28;20035;-78
2022/03/02 09:45:06;;;;;;;24.52;12.98;;;;;;;24.64;11.90;98945.00;5090806;28;20039;-78
2022/03/02 09:47:50;;;;;;;19.70;9.35;;;;;;;24.78;11.56;98935.69;5083815;28;20042;-78
2022/03/02 09:50:18;;;;;;;29.13;13.05;;;;;;;21.04;14.05;98956.44;5085281;28;20481;-78
2022/03/02 09:52:48;;;;;;;24.50;11.77;;;;;;;21.80;13.97;98956.22;5082534;28;20445;-78
2022/03/02 09:55:21;;;;;;;19.52;8.75;;;;;;;22.01;13.39;98953.47;5083571;28;20028;-78
2022/03/02 09:57:55;;;;;;;16.70;9.13;;;;;;;19.84;14.96;98946.41;5087601;28;20029;-78
2022/03/02 10:00:23;;;;;;;29.27;13.23;;;;;;;16.90;18.93;98950.66;5084816;28;20436;-78
2022/03/02 10:02:52;;;;;;;24.80;11.60;;;;;;;17.52;17.22;98943.97;5085676;28;20385;-78
2022/03/02 10:05:21;;;;;;;17.35;7.97;;;;;;;18.52;15.71;98937.69;5082284;28;20051;-77
2022/03/02 10:08:05;;;;;;;15.57;8.60;;;;;;;17.45;17.46;98935.50;5084322;28;20028;-78
2022/03/02 10:10:37;;;;;;;20.02;9.18;;;;;;;17.42;16.77;98930.66;5081996;28;20032;-78
2022/03/02 10:13:10;;;;;;;17.58;9.18;;;;;;;18.54;15.89;98918.66;5082542;28;20037;-78
2022/03/02 10:15:38;;;;;;;14.18;8.48;;;;;;;21.09;14.29;98914.19;5084465;28;20032;-78
2022/03/02 10:18:06;;;;;;;14.15;7.07;;;;;;;22.89;12.89;98903.00;5066598;28;20036;-78
2022/03/02 10:20:35;;;;;;;13.82;7.22;;;;;;;23.19;12.14;98886.44;5080792;28;20052;-78
2022/03/02 10:23:24;;;;;;;17.60;8.35;;;;;;;19.76;15.03;98900.97;5083458;28;20080;-78
2022/03/02 10:26:01;;;;;;;19.20;9.65;;;;;;;18.35;16.34;98899.28;5069654;28;20058;-78
2022/03/02 10:28:48;;;;;;;21.05;9.10;;;;;;;18.58;16.43;98896.44;5084132;28;20032;-78
2022/03/02 10:31:47;;;;;;;18.77;9.55;;;;;;;17.87;16.29;98895.41;5069240;28;20084;-78
2022/03/02 10:34:25;;;;;;;18.88;9.18;;;;;;;19.38;15.73;98887.47;5084623;28;20408;-78
2022/03/02 10:37:13;;;;;;;18.30;8.50;;;;;;;20.50;14.14;98883.97;5083204;28;20473;-78
2022/03/02 10:39:54;;;;;;;15.85;7.68;;;;;;;20.80;14.88;98872.53;5072207;28;20042;-78
2022/03/02 10:42:33;;;;;;;16.50;7.70;;;;;;;21.51;13.49;98871.56;5081533;28;20056;-78
2022/03/02 10:45:12;;;;;;;20.95;9.15;;;;;;;17.68;16.38;98864.13;5086760;28;20031;-78
2022/03/02 10:48:09;;;;;;;16.55;7.68;;;;;;;17.38;16.92;98864.00;5088173;28;20066;-78
2022/03/02 10:50:37;;;;;;;17.95;9.50;;;;;;;17.62;16.67;98860.06;5081201;28;20033;-78
2022/03/02 10:53:12;;;;;;;12.90;7.88;;;;;;;18.57;16.26;98855.94;5082964;28;20024;-78
2022/03/02 10:55:43;;;;;;;13.10;7.00;;;;;;;18.39;17.12;98858.44;5083749;28;20574;-78
2022/03/02 10:58:14;;;;;;;19.40;9.05;;;;;;;18.14;16.21;98845.38;5083002;28;20465;-78
2022/03/02 11:00:41;;;;;;;19.73;9.45;;;;;;;17.46;17.14;98843.50;5085175;28;20039;-78
2022/03/02 11:03:08;;;;;;;15.40;7.55;;;;;;;17.60;17.13;98840.19;5083432;28;20023;-78
2022/03/02 11:05:36;;;;;;;14.48;7.88;;;;;;;18.11;16.71;98832.25;5073780;28;20086;-78
2022/03/02 11:08:04;;;;;;;15.68;8.55;;;;;;;16.28;18.01;98835.25;5081771;28;20464;-78
2022/03/02 11:10:37;;;;;;;17.13;8.07;;;;;;;17.44;16.98;98822.84;5082993;28;20165;-78
2022/03/02 11:13:15;;;;;;;17.45;8.65;;;;;;;16.41;17.78;98829.22;5082081;28;20032;-78
2022/03/02 11:15:51;;;;;;;19.60;8.32;;;;;;;17.57;16.64;98827.06;5083161;28;20486;-78
2022/03/02 11:18:39;;;;;;;13.82;7.57;;;;;;;16.51;17.52;98820.34;5086112;28;20021;-78
2022/03/02 11:21:11;;;;;;;15.07;8.00;;;;;;;16.70;17.49;98822.31;5080895;28;20052;-78
2022/03/02 11:23:57;;;;;;;17.83;7.53;;;;;;;16.46;17.61;98823.38;5085560;28;20082;-78
2022/03/02 11:26:31;;;;;;;17.05;8.40;;;;;;;15.65;18.42;98816.06;5081795;28;20506;-78
2022/03/02 11:29:01;;;;;;;19.38;7.88;;;;;;;16.88;18.04;98814.31;5066743;28;20423;-78
2022/03/02 11:31:31;;;;;;;14.32;7.22;;;;;;;18.51;16.26;98797.06;5081818;28;20137;-78
2022/03/02 11:34:25;;;;;;;15.18;6.45;;;;;;;18.57;15.82;98797.53;5084035;28;20056;-78
2022/03/02 11:36:55;;;;;;;17.08;7.43;;;;;;;17.73;16.32;98803.53;5085662;28;20031;-78
2022/03/02 11:39:25;;;;;;;16.30;7.95;;;;;;;18.46;15.40;98794.59;5066860;28;20028;-78
2022/03/02 11:41:54;;;;;;;11.80;6.65;;;;;;;21.80;13.40;98775.31;5086307;28;20111;-78
2022/03/02 11:44:28;;;;;;;13.43;5.68;;;;;;;23.94;11.94;98764.09;5082913;28;20408;-78
2022/03/02 11:46:55;;;;;;;13.48;6.40;;;;;;;23.28;11.74;98762.69;5067054;28;20032;-78
2022/03/02 11:49:35;;;;;;;10.30;4.90;;;;;;;24.42;11.30;98760.38;5078136;28;20028;-78
2022/03/02 11:52:10;;;;;;;13.57;6.47;;;;;;;21.87;12.48;98752.19;5087568;28;20043;-78
2022/03/02 11:54:59;;;;;;;13.98;6.53;;;;;;;19.13;14.61;98759.16;5083313;28;20499;-78
2022/03/02 11:57:30;;;;;;;14.98;6.53;;;;;;;17.80;16.42;98758.38;5084553;28;20521;-78
2022/03/02 12:00:18;;;;;;;15.77;7.43;;;;;;;16.74;16.43;98756.63;5079901;28;20024;-78
2022/03/02 12:02:51;;;;;;;12.20;6.97;;;;;;;16.87;16.38;98744.19;5078737;28;20040;-78
2022/03/02 12:05:20;;;;;;;11.35;5.88;;;;;;;18.99;14.79;98745.13;5078636;28;20048;-78
2022/03/02 12:07:49;;;;;;;11.38;5.75;;;;;;;19.03;14.78;98739.56;5080261;28;20028;-78
2022/03/02 12:10:24;;;;;;;13.80;6.13;;;;;;;19.55;14.60;98739.22;5089300;28;20451;-79
2022/03/02 12:12:52;;;;;;;12.95;6.82;;;;;;;19.61;14.02;98740.44;5086669;28;20058;-79
2022/03/02 12:15:19;;;;;;;9.60;4.90;;;;;;;22.28;12.75;98725.28;5086258;28;20024;-78
2022/03/02 12:17:48;;;;;;;10.05;5.18;;;;;;;24.31;11.06;98714.81;5086018;28;20067;-78
2022/03/02 12:20:20;;;;;;;11.50;5.22;;;;;;;24.99;10.61;98716.28;5093134;28;20074;-78
2022/03/02 12:22:55;;;;;;;9.15;4.97;;;;;;;23.49;11.54;98712.09;5089062;28;20032;-78
2022/03/02 12:25:26;;;;;;;14.55;6.60;;;;;;;21.53;12.32;98706.31;5087758;28;20042;-79
2022/03/02 12:27:56;;;;;;;;;;;;;;;21.41;12.58;98701.94;5090833;28;20032;-79
2022/03/02 12:30:22;;;;;;;7.30;4.38;;;;;;;22.83;11.82;98700.19;5088104;28;19981;-79
2022/03/02 12:32:51;;;;;;;10.40;5.38;;;;;;;23.68;11.51;98697.50;5082758;28;20040;-79
2022/03/02 12:35:22;;;;;;;9.27;4.60;;;;;;;25.12;10.42;98700.41;5085785;28;20033;-79
2022/03/02 12:37:52;;;;;;;9.82;4.90;;;;;;;24.47;10.35;98692.53;5084039;28;20027;-78
2022/03/02 12:40:20;;;;;;;8.38;4.13;;;;;;;24.35;10.63;98695.91;5087525;28;20051;-79
2022/03/02 12:42:51;;;;;;;13.50;6.50;;;;;;;21.95;12.03;98681.88;5084304;28;20114;-78
2022/03/02 12:45:19;;;;;;;;;;;;;;;20.81;13.24;98692.75;5086111;28;20024;-78
2022/03/02 12:47:47;;;;;;;12.93;6.07;;;;;;;18.49;14.85;98696.53;5082182;28;19970;-79
2022/03/02 12:50:18;;;;;;;9.77;5.93;;;;;;;19.81;14.03;98693.63;5088904;28;20490;-79
2022/03/02 12:52:47;;;;;;;12.55;4.82;;;;;;;19.99;13.12;98688.91;5085253;28;20040;-79
2022/03/02 12:55:15;;;;;;;9.90;5.15;;;;;;;19.63;13.74;98679.56;5069006;28;20043;-78
2022/03/02 12:57:42;;;;;;;12.73;6.32;;;;;;;17.81;14.72;98682.19;5080597;28;20039;-79
2022/03/02 13:00:14;;;;;;;13.40;6.28;;;;;;;18.62;14.24;98672.81;5088869;28;20027;-78
2022/03/02 13:02:43;;;;;;;9.98;5.88;;;;;;;17.52;15.54;98680.22;5087960;28;20032;-78
2022/03/02 13:05:25;;;;;;;11.13;6.70;;;;;;;17.17;15.84;98666.63;5081802;28;20033;-79
2022/03/02 13:08:30;;;;;;;13.85;6.72;;;;;;;19.28;13.83;98665.41;5090518;28;20044;-79
2022/03/02 13:10:57;;;;;;;10.23;5.72;;;;;;;20.68;12.97;98656.03;5065845;28;20044;-79
2022/03/02 13:13:37;;;;;;;9.15;5.43;;;;;;;22.03;12.12;98654.69;5078011;28;20126;-79
2022/03/02 13:16:24;;;;;;;7.95;3.92;;;;;;;24.24;11.20;98655.97;5083398;28;20104;-79
2022/03/02 13:18:52;;;;;;;9.93;5.15;;;;;;;22.32;11.81;98653.31;5085628;28;20028;-79
2022/03/02 13:21:29;;;;;;;11.25;5.97;;;;;;;20.37;13.05;98665.19;5080476;28;20124;-79
2022/03/02 13:24:15;;;;;;;15.70;6.15;;;;;;;19.33;13.53;98665.03;5082940;28;20144;-79
2022/03/02 13:27:11;;;;;;;12.00;6.05;;;;;;;21.92;12.14;98648.31;5081035;28;20080;-79
2022/03/02 13:30:04;;;;;;;12.73;6.38;;;;;;;22.62;11.54;98647.97;5068532;28;20042;-79
2022/03/02 13:33:00;;;;;;;7.05;4.85;;;;;;;24.68;10.26;98647.31;5073558;28;20074;-79
2022/03/02 13:35:32;;;;;;;16.27;5.80;;;;;;;21.70;12.42;98646.78;5081132;28;20040;-79
2022/03/02 13:38:01;;;;;;;14.00;5.70;;;;;;;21.02;13.67;98653.66;5082956;28;20028;-78
2022/03/02 13:40:33;;;;;;;21.02;8.40;;;;;;;22.07;12.65;98643.47;5086104;28;20501;-78
2022/03/02 13:43:05;;;;;;;10.90;5.25;;;;;;;21.19;12.78;98645.28;5086340;28;20044;-78
2022/03/02 13:45:45;;;;;;;10.55;5.90;;;;;;;22.26;12.07;98640.97;5067582;28;20085;-78
2022/03/02 13:48:16;;;;;;;12.00;6.03;;;;;;;22.49;12.23;98637.63;5082887;28;20101;-78
2022/03/02 13:51:05;;;;;;;10.10;5.38;;;;;;;23.32;11.51;98620.53;5082285;28;20054;-78
2022/03/02 13:53:34;;;;;;;10.05;5.80;;;;;;;23.56;11.50;98627.94;5085207;28;20031;-79
2022/03/02 13:56:04;;;;;;;13.00;6.20;;;;;;;20.93;13.04;98633.75;5087539;28;20028;-79
2022/03/02 13:58:31;;;;;;;12.75;6.63;;;;;;;19.59;14.41;98631.41;5086441;28;20027;-79
2022/03/02 14:01:24;;;;;;;14.48;8.07;;;;;;;18.41;15.02;98636.44;5063857;28;20419;-78
2022/03/02 14:04:05;;;;;;;18.67;8.05;;;;;;;20.71;13.66;98630.16;5085097;28;20563;-78
2022/03/02 14:06:36;;;;;;;13.98;7.32;;;;;;;22.16;12.46;98627.03;5083785;28;20041;-80
2022/03/02 14:09:05;;;;;;;12.55;6.10;;;;;;;22.91;11.94;98628.16;5082654;28;21439;-80
2022/03/02 14:11:37;;;;;;;23.33;7.25;;;;;;;22.91;12.17;98626.16;5085459;28;20036;-80
2022/03/02 14:14:06;;;;;;;8.95;5.65;;;;;;;23.22;11.57;98618.66;5085340;28;20040;-80
2022/03/02 14:16:32;;;;;;;10.48;5.82;;;;;;;19.53;14.20;98632.19;5088326;28;20103;-80
2022/03/02 14:19:11;;;;;;;15.77;7.22;;;;;;;19.92;13.65;98620.00;5087183;28;20043;-80
2022/03/02 14:21:39;;;;;;;11.10;5.93;;;;;;;19.73;14.07;98625.09;5080663;28;20036;-80
2022/03/02 14:24:15;;;;;;;10.38;5.45;;;;;;;18.59;14.38;98623.56;5085616;28;20492;-80
2022/03/02 14:26:52;;;;;;;11.02;5.03;;;;;;;19.43;13.87;98630.94;5088339;28;20493;-79